Time;durP1;ratioP1;P1;durP2;ratioP2;P2;SDS_P1;SDS_P2;PMS_P1;PMS_P2;Temp;Humidity;BMP_temperature;BMP_pressure;BME280_temperature;BME280_humidity;BME280_pressure;Samples;Min_cycle;Max_cycle;Signal;HPM_P1;HPM_P2
2022/10/20 00:00:58;;;;;;;33.95;22.15;;;;;;;;;;5057901;28;20049;-87
2022/10/20 00:03:26;;;;;;;39.92;23.27;;;;;;;;;;5055881;28;20249;-88
2022/10/20 00:05:54;;;;;;;31.17;20.48;;;;;;;;;;5053827;28;20504;-88
2022/10/20 00:08:21;;;;;;;29.08;20.85;;;;;;;;;;5050708;28;20430;-88
2022/10/20 00:10:52;;;;;;;27.17;20.15;;;;;;;;;;5035053;28;20057;-88
2022/10/20 00:13:20;;;;;;;27.85;20.63;;;;;;;;;;5050883;28;20046;-88
2022/10/20 00:15:51;;;;;;;29.80;20.90;;;;;;;;;;5050503;28;20051;-88
2022/10/20 00:18:18;;;;;;;23.45;18.60;;;;;;;;;;5050569;28;20068;-88
2022/10/20 00:20:45;;;;;;;25.48;19.00;;;;;;;;;;5050672;28;20049;-88
2022/10/20 00:23:12;;;;;;;19.27;17.23;;;;;;;;;;5050503;28;20049;-87
2022/10/20 00:25:40;;;;;;;19.10;17.10;;;;;;;;;;5050267;28;20049;-88
2022/10/20 00:28:07;;;;;;;22.15;18.17;;;;;;;;;;5034713;28;20049;-88
2022/10/20 00:30:35;;;;;;;19.65;17.50;;;;;;;;;;5050485;28;20076;-89
2022/10/20 00:33:03;;;;;;;18.35;16.40;;;;;;;;;;5050407;28;20057;-88
2022/10/20 00:35:31;;;;;;;18.42;16.45;;;;;;;;;;5035012;28;20049;-88
2022/10/20 00:37:58;;;;;;;20.48;17.48;;;;;;;;;;5050236;28;20048;-88
2022/10/20 00:40:25;;;;;;;19.38;17.25;;;;;;;;;;5050303;28;20423;-88
2022/10/20 00:42:52;;;;;;;20.13;16.95;;;;;;;;;;5050139;28;20057;-88
2022/10/20 00:45:21;;;;;;;23.33;18.42;;;;;;;;;;5050040;28;20050;-88
2022/10/20 00:47:51;;;;;;;22.52;18.10;;;;;;;;;;5033922;28;20045;-88
2022/10/20 00:50:24;;;;;;;19.65;17.58;;;;;;;;;;5049808;28;20397;-88
2022/10/20 00:52:52;;;;;;;22.83;17.25;;;;;;;;;;5050142;28;20045;-89
2022/10/20 00:55:23;;;;;;;22.00;18.20;;;;;;;;;;5049816;28;20390;-88
2022/10/20 00:57:51;;;;;;;28.70;18.75;;;;;;;;;;5049856;28;20425;-88
2022/10/20 01:00:19;;;;;;;26.27;19.35;;;;;;;;;;5050132;28;20569;-88
2022/10/20 01:02:46;;;;;;;26.67;19.00;;;;;;;;;;5049894;28;20494;-89
2022/10/20 01:05:13;;;;;;;24.17;18.30;;;;;;;;;;5049555;28;20060;-88
2022/10/20 01:07:41;;;;;;;22.08;18.77;;;;;;;;;;5049357;28;20053;-88
2022/10/20 01:10:10;;;;;;;21.98;18.08;;;;;;;;;;5049383;28;20053;-88
2022/10/20 01:12:37;;;;;;;22.70;18.13;;;;;;;;;;5049525;28;20087;-89
2022/10/20 01:15:07;;;;;;;20.52;17.30;;;;;;;;;;5049568;28;20049;-88
2022/10/20 01:17:41;;;;;;;18.88;15.73;;;;;;;;;;5034016;28;20049;-88
2022/10/20 01:20:08;;;;;;;;;;;;;;;;;;5034589;28;20060;-88
2022/10/20 01:22:55;;;;;;;25.25;16.98;;;;;;;;;;5033765;28;19925;-88
2022/10/20 01:25:25;;;;;;;19.77;17.13;;;;;;;;;;5003733;28;20053;-88
2022/10/20 01:27:57;;;;;;;22.50;16.80;;;;;;;;;;5049342;28;20103;-88
2022/10/20 01:30:25;;;;;;;22.90;18.15;;;;;;;;;;5049464;28;20056;-89
2022/10/20 01:32:52;;;;;;;23.88;17.25;;;;;;;;;;5049497;28;20425;-88
2022/10/20 01:35:38;;;;;;;20.70;17.30;;;;;;;;;;5033647;28;20069;-88
2022/10/20 01:38:21;;;;;;;17.65;15.75;;;;;;;;;;5049275;28;20513;-88
2022/10/20 01:40:50;;;;;;;25.65;18.13;;;;;;;;;;5049154;28;20136;-88
2022/10/20 01:43:19;;;;;;;19.05;16.48;;;;;;;;;;5049015;28;20415;-88
2022/10/20 01:45:48;;;;;;;28.08;16.20;;;;;;;;;;5033547;28;20061;-87
2022/10/20 01:48:17;;;;;;;19.38;15.73;;;;;;;;;;5033663;28;20422;-88
2022/10/20 01:50:45;;;;;;;22.08;16.05;;;;;;;;;;5049276;28;20546;-88
2022/10/20 01:53:12;;;;;;;18.55;15.88;;;;;;;;;;5049117;28;20421;-88
2022/10/20 01:55:40;;;;;;;17.05;15.25;;;;;;;;;;5048822;28;20056;-88
2022/10/20 01:58:16;;;;;;;19.52;15.48;;;;;;;;;;5050228;28;20045;-87
2022/10/20 02:00:44;;;;;;;21.73;17.10;;;;;;;;;;5037849;28;20057;-89
2022/10/20 02:03:26;;;;;;;19.25;15.80;;;;;;;;;;5053177;28;20045;-88
2022/10/20 02:06:02;;;;;;;18.60;15.90;;;;;;;;;;5053103;28;20140;-88
2022/10/20 02:08:48;;;;;;;20.08;16.48;;;;;;;;;;5052796;28;20056;-87
2022/10/20 02:11:28;;;;;;;22.02;16.25;;;;;;;;;;5053197;28;20057;-88
2022/10/20 02:13:56;;;;;;;20.63;16.50;;;;;;;;;;5037505;28;20057;-88
2022/10/20 02:16:31;;;;;;;16.65;14.95;;;;;;;;;;5037416;28;20132;-87
2022/10/20 02:18:59;;;;;;;21.48;15.77;;;;;;;;;;5053020;28;20049;-89
2022/10/20 02:21:26;;;;;;;18.08;16.13;;;;;;;;;;5052670;28;20049;-88
2022/10/20 02:23:54;;;;;;;17.13;15.13;;;;;;;;;;5037494;28;20045;-88
2022/10/20 02:26:24;;;;;;;19.30;15.93;;;;;;;;;;5052494;28;20054;-89
2022/10/20 02:28:57;;;;;;;17.23;15.43;;;;;;;;;;5052843;28;20045;-88
2022/10/20 02:31:24;;;;;;;15.45;13.85;;;;;;;;;;5036967;28;20050;-89
2022/10/20 02:33:53;;;;;;;18.10;15.55;;;;;;;;;;5052704;28;20050;-88
2022/10/20 02:36:24;;;;;;;19.15;14.32;;;;;;;;;;5052518;28;20046;-88
2022/10/20 02:38:51;;;;;;;17.95;14.45;;;;;;;;;;5036910;28;20416;-88
2022/10/20 02:41:18;;;;;;;16.05;14.35;;;;;;;;;;5036795;28;20140;-87
2022/10/20 02:43:46;;;;;;;15.85;14.15;;;;;;;;;;5052464;28;20077;-88
2022/10/20 02:46:13;;;;;;;14.95;13.40;;;;;;;;;;5036653;28;20053;-88
2022/10/20 02:48:40;;;;;;;16.10;14.25;;;;;;;;;;5036536;28;20049;-88
2022/10/20 02:51:07;;;;;;;18.63;15.20;;;;;;;;;;5052113;28;20048;-88
2022/10/20 02:53:34;;;;;;;17.42;15.32;;;;;;;;;;5052306;28;20045;-88
2022/10/20 02:56:02;;;;;;;16.80;14.52;;;;;;;;;;5051993;28;20085;-88
2022/10/20 02:58:29;;;;;;;16.67;14.95;;;;;;;;;;5050698;28;20068;-88
2022/10/20 03:00:56;;;;;;;18.52;14.70;;;;;;;;;;5052124;28;20056;-88
2022/10/20 03:03:23;;;;;;;17.73;14.07;;;;;;;;;;5052034;28;20053;-88
2022/10/20 03:05:50;;;;;;;19.27;15.38;;;;;;;;;;5051987;28;20085;-88
2022/10/20 03:08:18;;;;;;;18.65;14.95;;;;;;;;;;5051488;28;20049;-88
2022/10/20 03:10:45;;;;;;;15.35;13.75;;;;;;;;;;5035475;28;20532;-88
2022/10/20 03:13:14;;;;;;;14.98;13.38;;;;;;;;;;5036571;28;20115;-88
2022/10/20 03:15:41;;;;;;;18.73;13.25;;;;;;;;;;5051830;28;20053;-89
2022/10/20 03:18:08;;;;;;;16.52;13.75;;;;;;;;;;5051815;28;20060;-88
2022/10/20 03:20:36;;;;;;;15.90;13.60;;;;;;;;;;5036379;28;20133;-88
2022/10/20 03:23:03;;;;;;;18.02;13.57;;;;;;;;;;5036243;28;20045;-89
2022/10/20 03:25:31;;;;;;;15.70;13.57;;;;;;;;;;5051567;28;20490;-88
2022/10/20 03:27:58;;;;;;;19.00;14.82;;;;;;;;;;5035800;28;20069;-88
2022/10/20 03:30:25;;;;;;;17.92;15.25;;;;;;;;;;5051694;28;20052;-88
2022/10/20 03:32:53;;;;;;;16.05;14.23;;;;;;;;;;5051699;28;20514;-88
2022/10/20 03:35:20;;;;;;;16.13;14.15;;;;;;;;;;5035672;28;20049;-88
2022/10/20 03:37:47;;;;;;;16.17;13.50;;;;;;;;;;5051499;28;20049;-88
2022/10/20 03:40:15;;;;;;;15.02;13.27;;;;;;;;;;5036100;28;20056;-88
2022/10/20 03:42:42;;;;;;;14.85;13.20;;;;;;;;;;5051692;28;20056;-89
2022/10/20 03:45:09;;;;;;;15.65;14.05;;;;;;;;;;5035884;28;20056;-88
2022/10/20 03:47:40;;;;;;;21.58;14.07;;;;;;;;;;5050733;28;20060;-88
2022/10/20 03:50:08;;;;;;;14.80;13.15;;;;;;;;;;5051282;28;20073;-88
2022/10/20 03:52:35;;;;;;;16.73;13.70;;;;;;;;;;5035541;28;20045;-89
2022/10/20 03:55:03;;;;;;;14.48;12.75;;;;;;;;;;5051152;28;20056;-88
2022/10/20 03:57:30;;;;;;;15.38;13.07;;;;;;;;;;5051342;28;20064;-88
2022/10/20 03:59:58;;;;;;;14.98;12.90;;;;;;;;;;5050671;28;20445;-88
2022/10/20 04:02:36;;;;;;;14.48;12.68;;;;;;;;;;5050909;28;20401;-88
2022/10/20 04:05:04;;;;;;;13.90;12.40;;;;;;;;;;5050726;28;20132;-88
2022/10/20 04:07:32;;;;;;;17.63;13.35;;;;;;;;;;5050863;28;20529;-88
2022/10/20 04:10:01;;;;;;;14.10;12.60;;;;;;;;;;5035258;28;20053;-87
2022/10/20 04:12:28;;;;;;;15.32;12.75;;;;;;;;;;5050972;28;20561;-89
2022/10/20 04:14:56;;;;;;;14.48;12.98;;;;;;;;;;5050798;28;20144;-88
2022/10/20 04:17:23;;;;;;;18.75;13.80;;;;;;;;;;5034977;28;20072;-87
2022/10/20 04:19:50;;;;;;;15.50;13.32;;;;;;;;;;5050637;28;20056;-89
2022/10/20 04:22:17;;;;;;;14.13;12.73;;;;;;;;;;5049506;28;20057;-88
2022/10/20 04:24:44;;;;;;;14.27;12.77;;;;;;;;;;5035038;28;20060;-88
2022/10/20 04:27:12;;;;;;;14.63;13.05;;;;;;;;;;5050285;28;20490;-87
2022/10/20 04:29:39;;;;;;;17.17;12.23;;;;;;;;;;5050113;28;20053;-88
2022/10/20 04:32:06;;;;;;;14.05;12.57;;;;;;;;;;5050334;28;20049;-87
2022/10/20 04:34:34;;;;;;;15.63;11.68;;;;;;;;;;5049906;28;20053;-88
2022/10/20 04:37:01;;;;;;;13.20;11.82;;;;;;;;;;5034857;28;20049;-89
2022/10/20 04:39:29;;;;;;;13.75;11.73;;;;;;;;;;5050066;28;20047;-88
2022/10/20 04:41:56;;;;;;;17.52;13.82;;;;;;;;;;5050289;28;20409;-86
2022/10/20 04:44:23;;;;;;;17.95;15.73;;;;;;;;;;5049790;28;20060;-88
2022/10/20 04:46:50;;;;;;;23.27;19.58;;;;;;;;;;5049920;28;20041;-88
2022/10/20 04:49:18;;;;;;;31.63;24.50;;;;;;;;;;5050012;28;20148;-88
2022/10/20 04:51:45;;;;;;;24.05;20.17;;;;;;;;;;5050026;28;20057;-89
2022/10/20 04:54:12;;;;;;;16.17;14.18;;;;;;;;;;5049782;28;20068;-88
2022/10/20 04:56:39;;;;;;;14.63;13.13;;;;;;;;;;5049692;28;20053;-88
2022/10/20 04:59:06;;;;;;;16.95;14.98;;;;;;;;;;5049937;28;20065;-88
2022/10/20 05:01:39;;;;;;;22.45;19.42;;;;;;;;;;5048993;28;20092;-89
2022/10/20 05:04:06;;;;;;;19.38;16.38;;;;;;;;;;5049779;28;20060;-88
2022/10/20 05:06:34;;;;;;;17.38;14.93;;;;;;;;;;5049701;28;20046;-89
2022/10/20 05:09:03;;;;;;;16.88;14.93;;;;;;;;;;5033997;28;20053;-88
2022/10/20 05:11:31;;;;;;;14.55;13.13;;;;;;;;;;5049760;28;20447;-88
2022/10/20 05:13:58;;;;;;;20.15;15.07;;;;;;;;;;5034419;28;20049;-89
2022/10/20 05:16:25;;;;;;;15.20;13.50;;;;;;;;;;5049543;28;20045;-87
2022/10/20 05:18:53;;;;;;;14.93;13.40;;;;;;;;;;5049358;28;20052;-88
2022/10/20 05:21:21;;;;;;;13.40;12.02;;;;;;;;;;5049224;28;20045;-88
2022/10/20 05:23:48;;;;;;;13.40;11.48;;;;;;;;;;5049366;28;20056;-88
2022/10/20 05:26:17;;;;;;;18.00;12.13;;;;;;;;;;5049092;28;20072;-88
2022/10/20 05:28:45;;;;;;;15.00;12.50;;;;;;;;;;5049221;28;20049;-88
2022/10/20 05:31:13;;;;;;;13.52;12.13;;;;;;;;;;5033787;28;20041;-88
2022/10/20 05:33:43;;;;;;;15.55;12.98;;;;;;;;;;5048824;28;20056;-88
2022/10/20 05:36:11;;;;;;;17.05;12.95;;;;;;;;;;5049085;28;20041;-89
2022/10/20 05:38:39;;;;;;;17.90;12.15;;;;;;;;;;5034242;28;20045;-89
2022/10/20 05:41:11;;;;;;;16.77;12.15;;;;;;;;;;5049162;28;20067;-89
2022/10/20 05:43:39;;;;;;;22.25;12.07;;;;;;;;;;5033715;28;20052;-89
2022/10/20 05:46:07;;;;;;;15.35;11.90;;;;;;;;;;5049341;28;20046;-88
2022/10/20 05:48:34;;;;;;;11.93;10.65;;;;;;;;;;5048803;28;20053;-89
2022/10/20 05:51:08;;;;;;;13.18;9.98;;;;;;;;;;5033673;28;20045;-88
2022/10/20 05:53:40;;;;;;;15.40;10.63;;;;;;;;;;5048547;28;20461;-90
2022/10/20 05:56:08;;;;;;;18.20;11.45;;;;;;;;;;5033706;28;20045;-88
2022/10/20 05:58:36;;;;;;;25.08;11.73;;;;;;;;;;5033552;28;20053;-89
2022/10/20 06:01:15;;;;;;;11.73;10.52;;;;;;;;;;5033909;28;20136;-89
2022/10/20 06:03:47;;;;;;;15.25;11.30;;;;;;;;;;5049162;28;20115;-88
2022/10/20 06:06:14;;;;;;;13.07;11.13;;;;;;;;;;5033269;28;20413;-88
2022/10/20 06:08:42;;;;;;;15.15;11.35;;;;;;;;;;5048720;28;20053;-88
2022/10/20 06:11:10;;;;;;;12.98;11.07;;;;;;;;;;5049141;28;20048;-89
2022/10/20 06:13:37;;;;;;;21.30;10.77;;;;;;;;;;5048628;28;20045;-89
2022/10/20 06:16:13;;;;;;;13.80;11.10;;;;;;;;;;5048843;28;20477;-88
2022/10/20 06:18:42;;;;;;;13.40;10.95;;;;;;;;;;5048499;28;20049;-87
2022/10/20 06:21:11;;;;;;;13.70;11.32;;;;;;;;;;5033495;28;20136;-89
2022/10/20 06:23:38;;;;;;;14.27;11.80;;;;;;;;;;5048597;28;20482;-88
2022/10/20 06:26:07;;;;;;;12.75;11.45;;;;;;;;;;5048656;28;20053;-88
2022/10/20 06:28:35;;;;;;;13.52;12.13;;;;;;;;;;5032747;28;20065;-88
2022/10/20 06:31:17;;;;;;;15.63;11.70;;;;;;;;;;5048569;28;20056;-89
2022/10/20 06:33:45;;;;;;;12.10;10.85;;;;;;;;;;5048894;28;20057;-89
2022/10/20 06:36:12;;;;;;;12.15;10.32;;;;;;;;;;5048700;28;20046;-88
2022/10/20 06:38:40;;;;;;;13.25;9.98;;;;;;;;;;5048623;28;20053;-89
2022/10/20 06:41:09;;;;;;;15.68;10.60;;;;;;;;;;5048277;28;20052;-87
2022/10/20 06:43:36;;;;;;;23.52;11.43;;;;;;;;;;5032945;28;20482;-88
2022/10/20 06:46:04;;;;;;;12.80;10.73;;;;;;;;;;5035639;28;20100;-88
2022/10/20 06:48:33;;;;;;;14.98;11.65;;;;;;;;;;5051835;28;20053;-88
2022/10/20 06:51:01;;;;;;;23.13;13.70;;;;;;;;;;5036921;28;20054;-89
2022/10/20 06:53:29;;;;;;;14.23;11.90;;;;;;;;;;5052181;28;20504;-88
2022/10/20 06:55:56;;;;;;;12.38;11.13;;;;;;;;;;5052126;28;20460;-88
2022/10/20 06:58:23;;;;;;;14.05;10.82;;;;;;;;;;5052013;28;20057;-88
2022/10/20 07:01:00;;;;;;;12.48;10.68;;;;;;;;;;5051925;28;20053;-88
2022/10/20 07:03:33;;;;;;;11.80;10.40;;;;;;;;;;5051343;28;20053;-88
2022/10/20 07:06:01;;;;;;;14.25;11.48;;;;;;;;;;5036515;28;20049;-88
2022/10/20 07:08:29;;;;;;;13.02;11.68;;;;;;;;;;5051876;28;20053;-88
2022/10/20 07:11:02;;;;;;;13.05;11.45;;;;;;;;;;5036248;28;20049;-89
2022/10/20 07:13:29;;;;;;;17.70;14.30;;;;;;;;;;5051793;28;20053;-88
2022/10/20 07:15:57;;;;;;;16.50;13.82;;;;;;;;;;5051780;28;20073;-89
2022/10/20 07:18:25;;;;;;;22.20;14.43;;;;;;;;;;5051733;28;20053;-88
2022/10/20 07:20:55;;;;;;;14.80;12.98;;;;;;;;;;5051939;28;20060;-88
2022/10/20 07:23:22;;;;;;;15.73;12.68;;;;;;;;;;5035911;28;20053;-88
2022/10/20 07:25:49;;;;;;;14.57;12.73;;;;;;;;;;5051596;28;20049;-88
2022/10/20 07:28:17;;;;;;;18.88;12.95;;;;;;;;;;5051309;28;20049;-88
2022/10/20 07:30:44;;;;;;;13.00;11.70;;;;;;;;;;5051413;28;20050;-89
2022/10/20 07:33:11;;;;;;;14.10;10.32;;;;;;;;;;5051089;28;20046;-89
2022/10/20 07:35:38;;;;;;;13.20;11.85;;;;;;;;;;5051427;28;20045;-89
2022/10/20 07:38:05;;;;;;;13.27;9.93;;;;;;;;;;5051525;28;20478;-88
2022/10/20 07:40:33;;;;;;;9.77;8.85;;;;;;;;;;5036365;28;20057;-88
2022/10/20 07:43:00;;;;;;;10.82;8.88;;;;;;;;;;5035868;28;20046;-89
2022/10/20 07:45:27;;;;;;;12.90;8.45;;;;;;;;;;5051374;28;20049;-89
2022/10/20 07:47:54;;;;;;;8.07;7.40;;;;;;;;;;5036039;28;20060;-90
2022/10/20 07:50:22;;;;;;;6.63;6.13;;;;;;;;;;5035734;28;20417;-88
2022/10/20 07:52:50;;;;;;;8.27;5.63;;;;;;;;;;5051314;28;20060;-88
2022/10/20 07:55:18;;;;;;;8.90;5.60;;;;;;;;;;5051204;28;20056;-88
2022/10/20 07:58:04;;;;;;;5.90;5.28;;;;;;;;;;5048426;28;20053;-88
2022/10/20 08:00:31;;;;;;;4.45;4.15;;;;;;;;;;5050874;28;20053;-88
2022/10/20 08:02:59;;;;;;;3.90;3.70;;;;;;;;;;5051182;28;20049;-88
2022/10/20 08:05:28;;;;;;;4.45;4.03;;;;;;;;;;5035552;28;20049;-90
2022/10/20 08:07:55;;;;;;;8.00;4.93;;;;;;;;;;5035284;28;20060;-89
2022/10/20 08:10:24;;;;;;;3.83;3.58;;;;;;;;;;5050530;28;20050;-90
2022/10/20 08:12:51;;;;;;;3.47;3.28;;;;;;;;;;5035162;28;20422;-89
2022/10/20 08:15:18;;;;;;;3.38;3.13;;;;;;;;;;5050928;28;20053;-88
2022/10/20 08:17:57;;;;;;;3.33;3.03;;;;;;;;;;5049212;28;20049;-90
2022/10/20 08:20:24;;;;;;;16.65;4.55;;;;;;;;;;5050862;28;20057;-90
2022/10/20 08:22:53;;;;;;;3.58;3.00;;;;;;;;;;5050422;28;20508;-89
2022/10/20 08:25:20;;;;;;;4.78;3.05;;;;;;;;;;5050379;28;20524;-90
2022/10/20 08:27:48;;;;;;;3.10;2.90;;;;;;;;;;5035108;28;20057;-87
2022/10/20 08:30:15;;;;;;;3.00;2.78;;;;;;;;;;5050496;28;20045;-91
2022/10/20 08:32:51;;;;;;;3.50;2.45;;;;;;;;;;5049806;28;20555;-89
2022/10/20 08:35:19;;;;;;;11.07;3.92;;;;;;;;;;5050296;28;20053;-89
2022/10/20 08:37:47;;;;;;;8.73;3.95;;;;;;;;;;5034888;28;20471;-89
2022/10/20 08:40:17;;;;;;;13.32;6.63;;;;;;;;;;5050237;28;20056;-89
2022/10/20 08:42:44;;;;;;;10.48;4.18;;;;;;;;;;5050371;28;20057;-88
2022/10/20 08:45:16;;;;;;;6.07;3.67;;;;;;;;;;5049980;28;20132;-89
2022/10/20 08:47:44;;;;;;;5.68;2.70;;;;;;;;;;5049995;28;20120;-88
2022/10/20 08:50:15;;;;;;;14.30;3.33;;;;;;;;;;5050097;28;20049;-89
2022/10/20 08:52:43;;;;;;;5.15;2.40;;;;;;;;;;5050001;28;20046;-89
2022/10/20 08:55:22;;;;;;;5.57;3.45;;;;;;;;;;5050230;28;20521;-89
2022/10/20 08:57:50;;;;;;;14.10;3.35;;;;;;;;;;5033074;28;20045;-91
2022/10/20 09:00:18;;;;;;;11.85;4.32;;;;;;;;;;5034264;28;20052;-90
2022/10/20 09:02:47;;;;;;;25.15;8.68;;;;;;;;;;5049863;28;20049;-90
2022/10/20 09:05:16;;;;;;;14.27;4.68;;;;;;;;;;5049567;28;20054;-89
2022/10/20 09:07:48;;;;;;;12.88;4.57;;;;;;;;;;5033806;28;20509;-91
2022/10/20 09:10:15;;;;;;;18.40;5.15;;;;;;;;;;5049572;28;20478;-91
2022/10/20 09:12:44;;;;;;;11.52;5.20;;;;;;;;;;5034184;28;20053;-91
2022/10/20 09:15:12;;;;;;;11.63;4.30;;;;;;;;;;5049549;28;20045;-91
2022/10/20 09:17:44;;;;;;;31.27;6.20;;;;;;;;;;5034135;28;20053;-90
2022/10/20 09:20:32;;;;;;;43.80;6.93;;;;;;;;;;5049670;28;20053;-92
2022/10/20 09:22:59;;;;;;;33.53;4.90;;;;;;;;;;5032718;28;20056;-90
2022/10/20 09:25:30;;;;;;;47.75;5.20;;;;;;;;;;5048990;28;20068;-91
2022/10/20 09:27:58;;;;;;;31.95;4.38;;;;;;;;;;5049432;28;20164;-91
2022/10/20 09:30:32;;;;;;;51.78;5.10;;;;;;;;;;5049175;28;20053;-89
2022/10/20 09:33:00;;;;;;;59.60;6.40;;;;;;;;;;5049762;28;20132;-91
2022/10/20 09:35:33;;;;;;;46.50;4.85;;;;;;;;;;5049314;28;20049;-92
2022/10/20 09:38:00;;;;;;;27.00;5.30;;;;;;;;;;5049740;28;20390;-91
2022/10/20 09:40:28;;;;;;;19.15;5.03;;;;;;;;;;5049196;28;20052;-91
2022/10/20 09:43:01;;;;;;;29.08;5.68;;;;;;;;;;5049611;28;20053;-92
2022/10/20 09:45:30;;;;;;;25.95;4.43;;;;;;;;;;5049242;28;20136;-92
2022/10/20 09:48:16;;;;;;;13.45;3.30;;;;;;;;;;5049112;28;20136;-90
2022/10/20 09:50:46;;;;;;;10.05;3.97;;;;;;;;;;5049779;28;20068;-91
2022/10/20 09:53:21;;;;;;;18.35;5.18;;;;;;;;;;5049446;28;20054;-90
2022/10/20 09:55:49;;;;;;;10.82;2.90;;;;;;;;;;5053291;28;20054;-90
2022/10/20 09:58:26;;;;;;;7.53;2.70;;;;;;;;;;5049356;28;20049;-90
2022/10/20 10:00:55;;;;;;;8.38;3.13;;;;;;;;;;5049507;28;20049;-93
2022/10/20 10:03:22;;;;;;;7.70;2.55;;;;;;;;;;5049442;28;20057;-91
2022/10/20 10:05:50;;;;;;;7.70;2.17;;;;;;;;;;5049305;28;20060;-91
2022/10/20 10:08:18;;;;;;;8.52;2.70;;;;;;;;;;5033727;28;20099;-92
2022/10/20 10:10:57;;;;;;;4.85;2.13;;;;;;;;;;5033650;28;20501;-91
2022/10/20 10:13:25;;;;;;;16.23;3.88;;;;;;;;;;5049204;28;20050;-91
2022/10/20 10:16:19;;;;;;;17.98;3.35;;;;;;;;;;5049165;28;20053;-93
2022/10/20 10:18:55;;;;;;;19.10;2.40;;;;;;;;;;5030530;28;20064;-91
2022/10/20 10:21:22;;;;;;;13.30;2.33;;;;;;;;;;5052470;28;20049;-92
2022/10/20 10:23:52;;;;;;;7.70;1.70;;;;;;;;;;5053211;28;20053;-92
2022/10/20 10:26:38;;;;;;;5.80;1.60;;;;;;;;;;5053163;28;20052;-91
2022/10/20 10:29:14;;;;;;;53.67;4.28;;;;;;;;;;5052872;28;20045;-92
2022/10/20 10:31:50;;;;;;;23.65;2.40;;;;;;;;;;5053092;28;20045;-91
2022/10/20 10:34:17;;;;;;;5.60;1.60;;;;;;;;;;5053102;28;20064;-93
2022/10/20 10:36:44;;;;;;;4.95;1.75;;;;;;;;;;5052721;28;20153;-91
2022/10/20 10:39:13;;;;;;;4.30;1.75;;;;;;;;;;5052769;28;20058;-91
2022/10/20 10:41:50;;;;;;;14.23;2.00;;;;;;;;;;5052724;28;20502;-92
2022/10/20 10:44:22;;;;;;;6.70;1.63;;;;;;;;;;5052626;28;20053;-92
2022/10/20 10:46:55;;;;;;;4.40;1.35;;;;;;;;;;5052648;28;20451;-91
2022/10/20 10:49:30;;;;;;;5.17;1.60;;;;;;;;;;5052310;28;20045;-92
2022/10/20 10:51:57;;;;;;;34.72;3.58;;;;;;;;;;5052618;28;20052;-90
2022/10/20 10:54:43;;;;;;;30.45;2.70;;;;;;;;;;5052305;28;20077;-92
2022/10/20 10:57:26;;;;;;;309.92;21.13;;;;;;;;;;5052728;28;20059;-91
2022/10/20 10:59:53;;;;;;;10.35;1.80;;;;;;;;;;5052544;28;20046;-91
2022/10/20 11:02:39;;;;;;;15.73;2.00;;;;;;;;;;5052215;28;20050;-91
2022/10/20 11:05:16;;;;;;;3.53;1.35;;;;;;;;;;5052111;28;20401;-92
2022/10/20 11:07:50;;;;;;;10.20;2.17;;;;;;;;;;5036382;28;20055;-92
2022/10/20 11:10:35;;;;;;;4.95;1.40;;;;;;;;;;5052036;28;20065;-91
2022/10/20 11:13:21;;;;;;;2.33;1.05;;;;;;;;;;5052552;28;20061;-91
2022/10/20 11:15:59;;;;;;;11.15;1.80;;;;;;;;;;5051912;28;20045;-91
2022/10/20 11:18:26;;;;;;;4.35;1.10;;;;;;;;;;5037317;28;20394;-94
2022/10/20 11:21:06;;;;;;;1.55;1.00;;;;;;;;;;5054247;28;20129;-93
2022/10/20 11:23:50;;;;;;;3.80;1.15;;;;;;;;;;5052799;28;20444;-92
2022/10/20 11:26:24;;;;;;;3.63;1.00;;;;;;;;;;5052056;28;20057;-93
2022/10/20 11:28:55;;;;;;;14.77;1.60;;;;;;;;;;5051517;28;20054;-93
2022/10/20 11:31:29;;;;;;;1.80;0.70;;;;;;;;;;5051664;28;20049;-95
2022/10/20 11:34:01;;;;;;;4.55;0.90;;;;;;;;;;5052231;28;20056;-90
2022/10/20 11:36:33;;;;;;;1.95;0.95;;;;;;;;;;5051495;28;20053;-92
2022/10/20 11:39:02;;;;;;;4.53;1.15;;;;;;;;;;5036135;28;20053;-92
2022/10/20 11:41:49;;;;;;;9.15;1.55;;;;;;;;;;5036069;28;20057;-92
2022/10/20 11:44:39;;;;;;;7.75;1.30;;;;;;;;;;5051424;28;20046;-91
2022/10/20 11:47:10;;;;;;;5.30;1.08;;;;;;;;;;5036070;28;20052;-91
2022/10/20 11:49:39;;;;;;;3.60;1.00;;;;;;;;;;5036008;28;20057;-91
2022/10/20 11:52:18;;;;;;;2.67;0.80;;;;;;;;;;5051883;28;20084;-92
2022/10/20 11:55:04;;;;;;;3.95;0.88;;;;;;;;;;5051084;28;20049;-91
2022/10/20 11:57:37;;;;;;;2.15;1.00;;;;;;;;;;5051054;28;20060;-91
2022/10/20 12:00:14;;;;;;;3.20;0.90;;;;;;;;;;5051374;28;20053;-91
2022/10/20 12:02:51;;;;;;;6.32;1.00;;;;;;;;;;5051406;28;20061;-92
2022/10/20 12:05:27;;;;;;;5.20;0.98;;;;;;;;;;5050962;28;20056;-92
2022/10/20 12:08:13;;;;;;;1.08;0.98;;;;;;;;;;5051157;28;20053;-93
2022/10/20 12:10:59;;;;;;;2.67;0.80;;;;;;;;;;5049121;28;20081;-93
2022/10/20 12:13:29;;;;;;;7.68;1.10;;;;;;;;;;5051543;28;20042;-92
2022/10/20 12:15:57;;;;;;;1.38;0.90;;;;;;;;;;5036042;28;20057;-92
2022/10/20 12:18:31;;;;;;;4.72;1.00;;;;;;;;;;5036881;28;20049;-92
2022/10/20 12:21:03;;;;;;;2.75;1.02;;;;;;;;;;5051230;28;20053;-90
2022/10/20 12:23:45;;;;;;;2.17;0.90;;;;;;;;;;5035593;28;20049;-93
2022/10/20 12:26:45;;;;;;;1.63;0.98;;;;;;;;;;5051853;28;20058;-93
2022/10/20 12:29:31;;;;;;;6.80;1.58;;;;;;;;;;5002233;28;20405;-93
2022/10/20 12:32:30;;;;;;;12.20;1.73;;;;;;;;;;5051522;28;20085;-92
2022/10/20 12:34:59;;;;;;;2.20;1.10;;;;;;;;;;5002324;28;20053;-93
2022/10/20 12:37:28;;;;;;;4.75;1.02;;;;;;;;;;5051454;28;20096;-90
2022/10/20 12:39:59;;;;;;;5.63;2.70;;;;;;;;;;5050579;28;20071;-92
2022/10/20 12:42:26;;;;;;;7.20;2.88;;;;;;;;;;5049681;28;20049;-92
2022/10/20 12:44:53;;;;;;;6.18;5.57;;;;;;;;;;5050284;28;20061;-92
2022/10/20 12:47:25;;;;;;;107.82;6.20;;;;;;;;;;5034928;28;20052;-92
2022/10/20 12:50:02;;;;;;;33.25;2.53;;;;;;;;;;5049977;28;20049;-91
2022/10/20 12:52:31;;;;;;;6.88;1.30;;;;;;;;;;5049950;28;20064;-92
2022/10/20 12:55:04;;;;;;;8.85;1.58;;;;;;;;;;5034659;28;20045;-92
2022/10/20 12:57:35;;;;;;;1.42;1.02;;;;;;;;;;5050153;28;20057;-92
2022/10/20 13:00:06;;;;;;;2.67;1.20;;;;;;;;;;5049868;28;20508;-94
2022/10/20 13:02:43;;;;;;;4.95;0.95;;;;;;;;;;5050570;28;20132;-92
2022/10/20 13:05:13;;;;;;;12.60;1.80;;;;;;;;;;5049842;28;20065;-90
2022/10/20 13:07:47;;;;;;;3.63;1.10;;;;;;;;;;5049853;28;20502;-92
2022/10/20 13:10:29;;;;;;;2.28;1.10;;;;;;;;;;5049503;28;20104;-92
2022/10/20 13:13:02;;;;;;;7.68;1.00;;;;;;;;;;5050048;28;20512;-92
2022/10/20 13:15:42;;;;;;;6.38;1.60;;;;;;;;;;5049844;28;20405;-91
2022/10/20 13:18:12;;;;;;;17.88;2.95;;;;;;;;;;5049232;28;20050;-91
2022/10/20 13:20:56;;;;;;;18.92;2.55;;;;;;;;;;5049664;28;20047;-92
2022/10/20 13:23:23;;;;;;;;;;;;;;;;;;5050327;28;20413;-92
2022/10/20 13:25:55;;;;;;;8.38;2.35;;;;;;;;;;5033888;28;19932;-91
2022/10/20 13:28:22;;;;;;;28.02;3.00;;;;;;;;;;5034066;28;20053;-92
2022/10/20 13:30:55;;;;;;;24.77;2.35;;;;;;;;;;5034117;28;20049;-92
2022/10/20 13:33:41;;;;;;;12.20;1.67;;;;;;;;;;5049503;28;20045;-92
2022/10/20 13:36:42;;;;;;;14.60;2.17;;;;;;;;;;5033883;28;20049;-92
2022/10/20 13:39:48;;;;;;;7.85;1.50;;;;;;;;;;5049499;28;20053;-91
2022/10/20 13:42:21;;;;;;;16.48;2.22;;;;;;;;;;4973289;28;20254;-92
2022/10/20 13:45:08;;;;;;;11.33;2.00;;;;;;;;;;4973344;28;20061;-92
2022/10/20 13:47:56;;;;;;;22.60;2.38;;;;;;;;;;5013415;28;20045;-93
2022/10/20 13:50:27;;;;;;;14.10;2.17;;;;;;;;;;5033644;28;20049;-92
2022/10/20 13:52:57;;;;;;;29.85;2.75;;;;;;;;;;5049027;28;20056;-91
2022/10/20 13:55:44;;;;;;;31.98;1.90;;;;;;;;;;5049131;28;20049;-93
2022/10/20 13:58:19;;;;;;;6.32;1.13;;;;;;;;;;5050234;28;20056;-92
2022/10/20 14:00:55;;;;;;;1.13;0.98;;;;;;;;;;5051579;28;20104;-93
2022/10/20 14:03:22;;;;;;;7.72;1.00;;;;;;;;;;5053179;28;20508;-88
2022/10/20 14:05:53;;;;;;;18.30;1.10;;;;;;;;;;5051557;28;20049;-95
2022/10/20 14:08:23;;;;;;;1.05;1.00;;;;;;;;;;5036031;28;20053;-93
2022/10/20 14:10:58;;;;;;;5.05;1.35;;;;;;;;;;5051417;28;20057;-91
2022/10/20 14:13:28;;;;;;;8.50;1.30;;;;;;;;;;5036127;28;20140;-94
2022/10/20 14:15:56;;;;;;;2.47;0.77;;;;;;;;;;5051922;28;20053;-93
2022/10/20 14:18:26;;;;;;;2.38;1.00;;;;;;;;;;5036853;28;20050;-93
2022/10/20 14:20:55;;;;;;;2.35;0.80;;;;;;;;;;5051436;28;20057;-95
2022/10/20 14:23:23;;;;;;;4.95;1.02;;;;;;;;;;5055631;28;20424;-96
2022/10/20 14:25:52;;;;;;;3.53;0.90;;;;;;;;;;5053810;28;20049;-94
2022/10/20 14:28:20;;;;;;;2.28;1.10;;;;;;;;;;5052724;28;20413;-94
2022/10/20 14:30:48;;;;;;;8.20;1.38;;;;;;;;;;5056198;28;20052;-94
2022/10/20 14:33:16;;;;;;;1.98;1.20;;;;;;;;;;5050267;28;20046;-93
2022/10/20 14:35:44;;;;;;;5.45;1.00;;;;;;;;;;5053970;28;20045;-93
2022/10/20 14:38:17;;;;;;;2.60;0.80;;;;;;;;;;5052320;28;20041;-94
2022/10/20 14:40:52;;;;;;;1.07;0.97;;;;;;;;;;5054873;28;20058;-91
2022/10/20 14:43:43;;;;;;;2.63;1.30;;;;;;;;;;5061219;28;20504;-93
2022/10/20 14:46:11;;;;;;;10.70;1.98;;;;;;;;;;5051587;28;20049;-93
2022/10/20 14:48:42;;;;;;;7.65;2.17;;;;;;;;;;5037363;28;20077;-93
2022/10/20 14:51:32;;;;;;;3.28;1.52;;;;;;;;;;5038989;28;20053;-93